createdAt,value
2018-09-10T00:00:08.653Z,98748.00
2018-09-10T00:02:38.759Z,98749.00
2018-09-10T00:05:09.392Z,98752.00
2018-09-10T00:07:39.527Z,98751.00
2018-09-10T00:10:09.629Z,98750.00
2018-09-10T00:12:39.839Z,98752.00
2018-09-10T00:15:10.863Z,98750.00
2018-09-10T00:17:40.933Z,98747.00
2018-09-10T00:20:10.993Z,98752.00
2018-09-10T00:22:41.117Z,98748.00
2018-09-10T00:25:11.165Z,98753.00
2018-09-10T00:27:41.361Z,98763.00
2018-09-10T00:30:11.556Z,98764.00
2018-09-10T00:32:42.381Z,98764.00
2018-09-10T00:35:12.457Z,98762.00
2018-09-10T00:37:43.931Z,98761.00
2018-09-10T00:40:14.029Z,98760.00
2018-09-10T00:42:44.129Z,98760.00
2018-09-10T00:45:14.249Z,98765.00
2018-09-10T00:47:44.385Z,98769.00
2018-09-10T00:50:14.481Z,98767.00
2018-09-10T00:52:44.590Z,98768.00
2018-09-10T00:55:14.665Z,98764.00
2018-09-10T00:57:44.704Z,98769.00
2018-09-10T01:00:14.895Z,98774.00
2018-09-10T01:02:44.971Z,98779.00
2018-09-10T01:05:15.047Z,98775.00
2018-09-10T01:07:45.174Z,98784.00
2018-09-10T01:10:15.348Z,98785.00
2018-09-10T01:12:45.468Z,98791.00
2018-09-10T01:15:15.580Z,98792.00
2018-09-10T01:17:45.666Z,98788.00
2018-09-10T01:20:15.695Z,98785.00
2018-09-10T01:22:45.772Z,98774.00
2018-09-10T01:25:15.944Z,98781.00
2018-09-10T01:27:46.077Z,98778.00
2018-09-10T01:30:16.139Z,98779.00
2018-09-10T01:32:46.172Z,98775.00
2018-09-10T01:35:16.220Z,98770.00
2018-09-10T01:37:46.942Z,98765.00
2018-09-10T01:40:17.146Z,98774.00
2018-09-10T01:42:47.310Z,98772.00
2018-09-10T01:45:17.328Z,98771.00
2018-09-10T01:47:47.757Z,98772.00
2018-09-10T01:50:17.859Z,98772.00
2018-09-10T01:52:47.946Z,98769.00
2018-09-10T01:55:18.044Z,98769.00
2018-09-10T01:57:48.064Z,98770.00
2018-09-10T02:00:18.156Z,98766.00
2018-09-10T02:02:48.278Z,98764.00
2018-09-10T02:05:18.416Z,98765.00
2018-09-10T02:07:48.647Z,98765.00
2018-09-10T02:10:18.808Z,98765.00
2018-09-10T02:12:48.936Z,98770.00
2018-09-10T02:15:19.060Z,98770.00
2018-09-10T02:17:49.177Z,98766.00
2018-09-10T02:20:19.293Z,98770.00
2018-09-10T02:22:49.304Z,98767.00
2018-09-10T02:25:19.530Z,98766.00
2018-09-10T02:27:49.665Z,98763.00
2018-09-10T02:30:19.841Z,98760.00
2018-09-10T02:32:49.938Z,98755.00
2018-09-10T02:35:20.041Z,98765.00
2018-09-10T02:37:50.601Z,98763.00
2018-09-10T02:40:20.708Z,98762.00
2018-09-10T02:42:50.878Z,98758.00
2018-09-10T02:45:20.899Z,98761.00
2018-09-10T02:47:51.094Z,98766.00
2018-09-10T02:50:21.282Z,98763.00
2018-09-10T02:52:51.366Z,98768.00
2018-09-10T02:55:21.465Z,98767.00
2018-09-10T02:57:51.592Z,98778.00
2018-09-10T03:00:25.381Z,98775.00
2018-09-10T03:02:55.724Z,98779.00
2018-09-10T03:05:25.974Z,98776.00
2018-09-10T03:07:56.063Z,98781.00
2018-09-10T03:10:26.174Z,98780.00
2018-09-10T03:12:56.272Z,98783.00
2018-09-10T03:15:26.417Z,98785.00
2018-09-10T03:17:56.538Z,98785.00
2018-09-10T03:20:27.125Z,98788.00
2018-09-10T03:22:57.144Z,98789.00
2018-09-10T03:25:27.304Z,98782.00
2018-09-10T03:27:57.344Z,98781.00
2018-09-10T03:30:27.376Z,98784.00
2018-09-10T03:32:57.489Z,98780.00
2018-09-10T03:35:28.183Z,98780.00
2018-09-10T03:37:58.403Z,98777.00
2018-09-10T03:40:28.749Z,98777.00
2018-09-10T03:42:58.905Z,98778.00
2018-09-10T03:45:28.925Z,98782.00
2018-09-10T03:47:59.659Z,98778.00
2018-09-10T03:50:29.723Z,98782.00
2018-09-10T03:52:59.795Z,98784.00
2018-09-10T03:55:29.836Z,98791.00
2018-09-10T03:57:59.911Z,98784.00
2018-09-10T04:00:30.030Z,98775.00
2018-09-10T04:03:00.153Z,98772.00
2018-09-10T04:05:31.256Z,98768.00
2018-09-10T04:08:01.412Z,98770.00
2018-09-10T04:10:31.505Z,98764.00
2018-09-10T04:13:01.623Z,98768.00
2018-09-10T04:15:31.745Z,98768.00
2018-09-10T04:18:01.830Z,98778.00
2018-09-10T04:20:31.897Z,98786.00
2018-09-10T04:23:02.531Z,98781.00
2018-09-10T04:25:32.688Z,98786.00
2018-09-10T04:28:02.838Z,98792.00
2018-09-10T04:30:32.926Z,98798.00
2018-09-10T04:33:03.135Z,98801.00
2018-09-10T04:35:33.215Z,98804.00
2018-09-10T04:38:03.486Z,98811.00
2018-09-10T04:40:33.607Z,98812.00
2018-09-10T04:43:03.730Z,98814.00
2018-09-10T04:45:33.871Z,98809.00
2018-09-10T04:48:03.947Z,98817.00
2018-09-10T04:50:34.126Z,98813.00
2018-09-10T04:53:04.197Z,98815.00
2018-09-10T04:55:34.293Z,98819.00
2018-09-10T04:58:05.036Z,98817.00
2018-09-10T05:00:35.033Z,98817.00
2018-09-10T05:03:05.703Z,98819.00
2018-09-10T05:05:36.015Z,98828.00
2018-09-10T05:08:06.227Z,98826.00
2018-09-10T05:10:36.318Z,98828.00
2018-09-10T05:13:06.409Z,98824.00
2018-09-10T05:15:36.629Z,98822.00
2018-09-10T05:18:06.731Z,98823.00
2018-09-10T05:20:36.794Z,98827.00
2018-09-10T05:23:06.923Z,98829.00
2018-09-10T05:25:37.043Z,98834.00
2018-09-10T05:28:07.189Z,98845.00
2018-09-10T05:30:37.706Z,98849.00
2018-09-10T05:33:07.887Z,98856.00
2018-09-10T05:35:38.046Z,98855.00
2018-09-10T05:38:08.166Z,98856.00
2018-09-10T05:40:38.222Z,98855.00
2018-09-10T05:43:08.372Z,98852.00
2018-09-10T05:45:38.545Z,98850.00
2018-09-10T05:48:08.986Z,98845.00
2018-09-10T05:50:39.051Z,98842.00
2018-09-10T05:53:09.127Z,98841.00
2018-09-10T05:55:39.290Z,98845.00
2018-09-10T05:58:09.469Z,98843.00
2018-09-10T06:00:39.717Z,98847.00
2018-09-10T06:03:09.836Z,98848.00
2018-09-10T06:05:40.373Z,98852.00
2018-09-10T06:08:10.790Z,98853.00
2018-09-10T06:10:40.978Z,98852.00
2018-09-10T06:13:11.012Z,98855.00
2018-09-10T06:15:41.117Z,98852.00
2018-09-10T06:18:11.217Z,98849.00
2018-09-10T06:20:41.420Z,98853.00
2018-09-10T06:23:11.608Z,98856.00
2018-09-10T06:25:41.681Z,98858.00
2018-09-10T06:28:11.810Z,98856.00
2018-09-10T06:30:41.856Z,98867.00
2018-09-10T06:33:12.050Z,98863.00
2018-09-10T06:35:42.230Z,98859.00
2018-09-10T06:38:12.391Z,98864.00
2018-09-10T06:40:42.414Z,98870.00
2018-09-10T06:43:12.548Z,98878.00
2018-09-10T06:45:42.674Z,98877.00
2018-09-10T06:48:13.629Z,98882.00
2018-09-10T06:50:43.744Z,98883.00
2018-09-10T06:53:13.874Z,98884.00
2018-09-10T06:55:43.955Z,98881.00
2018-09-10T06:58:14.066Z,98879.00
2018-09-10T07:00:44.168Z,98873.00
2018-09-10T07:03:14.296Z,98869.00
2018-09-10T07:05:44.419Z,98872.00
2018-09-10T07:08:14.574Z,98868.00
2018-09-10T07:10:44.660Z,98867.00
2018-09-10T07:13:14.794Z,98872.00
2018-09-10T07:15:44.868Z,98873.00
2018-09-10T07:18:15.125Z,98878.00
2018-09-10T07:20:45.794Z,98875.00
2018-09-10T07:23:16.018Z,98870.00
2018-09-10T07:25:46.240Z,98870.00
2018-09-10T07:28:16.871Z,98872.00
2018-09-10T07:30:47.069Z,98873.00
2018-09-10T07:33:17.242Z,98878.00
2018-09-10T07:35:48.020Z,98885.00
2018-09-10T07:38:18.170Z,98884.00
2018-09-10T07:40:49.031Z,98889.00
2018-09-10T07:43:19.148Z,98880.00
2018-09-10T07:45:49.178Z,98882.00
2018-09-10T07:48:20.284Z,98882.00
2018-09-10T07:50:50.340Z,98886.00
2018-09-10T07:53:20.577Z,98888.00
2018-09-10T07:55:50.660Z,98887.00
2018-09-10T07:58:20.753Z,98877.00
2018-09-10T08:00:50.892Z,98876.00
2018-09-10T08:03:21.677Z,98877.00
2018-09-10T08:05:51.828Z,98881.00
2018-09-10T08:08:21.985Z,98884.00
2018-09-10T08:10:52.145Z,98888.00
2018-09-10T08:13:22.199Z,98880.00
2018-09-10T08:15:52.303Z,98881.00
2018-09-10T08:18:23.305Z,98875.00
2018-09-10T08:20:53.375Z,98872.00
2018-09-10T08:23:23.437Z,98880.00
2018-09-10T08:25:54.057Z,98874.00
2018-09-10T08:28:25.123Z,98882.00
2018-09-10T08:30:55.213Z,98881.00
2018-09-10T08:33:25.275Z,98880.00
2018-09-10T08:35:55.344Z,98890.00
2018-09-10T08:38:26.095Z,98891.00
2018-09-10T08:40:56.196Z,98890.00
2018-09-10T08:43:26.340Z,98889.00
2018-09-10T08:45:56.404Z,98886.00
2018-09-10T08:48:26.475Z,98885.00
2018-09-10T08:50:56.543Z,98882.00
2018-09-10T08:53:26.622Z,98884.00
2018-09-10T08:55:57.277Z,98878.00
2018-09-10T08:58:27.345Z,98875.00
2018-09-10T09:00:57.508Z,98870.00
2018-09-10T09:03:27.636Z,98867.00
2018-09-10T09:05:57.826Z,98872.00
2018-09-10T09:08:27.929Z,98871.00
2018-09-10T09:10:58.114Z,98873.00
2018-09-10T09:13:28.284Z,98870.00
2018-09-10T09:15:58.410Z,98865.00
2018-09-10T09:18:28.524Z,98863.00
2018-09-10T09:20:58.608Z,98874.00
2018-09-10T09:23:29.510Z,98870.00
2018-09-10T09:25:59.590Z,98871.00
2018-09-10T09:28:29.738Z,98872.00
2018-09-10T09:30:59.810Z,98869.00
2018-09-10T09:33:29.908Z,98873.00
2018-09-10T09:36:05.245Z,98868.00
2018-09-10T09:38:40.657Z,98860.00
2018-09-10T09:41:16.076Z,98860.00
2018-09-10T09:43:51.830Z,98857.00
2018-09-10T09:46:21.906Z,98854.00
2018-09-10T09:48:52.016Z,98847.00
2018-09-10T09:51:22.157Z,98846.00
2018-09-10T09:53:52.238Z,98838.00
2018-09-10T09:56:22.283Z,98835.00
2018-09-10T09:58:52.472Z,98829.00
2018-09-10T10:01:24.422Z,98829.00
2018-09-10T10:03:59.203Z,98820.00
2018-09-10T10:06:29.329Z,98826.00
2018-09-10T10:08:59.430Z,98820.00
2018-09-10T10:11:29.750Z,98814.00
2018-09-10T10:13:59.838Z,98811.00
2018-09-10T10:16:29.958Z,98814.00
2018-09-10T10:19:00.052Z,98813.00
2018-09-10T10:21:30.142Z,98814.00
2018-09-10T10:24:00.542Z,98808.00
2018-09-10T10:26:30.689Z,98807.00
2018-09-10T10:29:00.757Z,98809.00
2018-09-10T10:31:30.814Z,98802.00
2018-09-10T10:34:00.960Z,98799.00
2018-09-10T10:36:31.694Z,98797.00
2018-09-10T10:39:02.117Z,98796.00
2018-09-10T10:41:32.188Z,98796.00
2018-09-10T10:44:02.422Z,98793.00
2018-09-10T10:46:33.385Z,98793.00
2018-09-10T10:49:04.628Z,98786.00
2018-09-10T10:51:35.500Z,98785.00
2018-09-10T10:54:06.132Z,98787.00
2018-09-10T10:56:36.245Z,98775.00
2018-09-10T10:59:06.347Z,98777.00
2018-09-10T11:01:36.517Z,98777.00
2018-09-10T11:04:06.752Z,98779.00
2018-09-10T11:06:37.372Z,98780.00
2018-09-10T11:09:24.030Z,98777.00
2018-09-10T11:11:54.192Z,98776.00
2018-09-10T11:14:24.321Z,98777.00
2018-09-10T11:16:54.441Z,98775.00
2018-09-10T11:19:24.776Z,98777.00
2018-09-10T11:21:54.816Z,98774.00
2018-09-10T11:24:25.004Z,98775.00
2018-09-10T11:26:55.100Z,98771.00
2018-09-10T11:29:26.319Z,98765.00
2018-09-10T11:31:57.383Z,98764.00
2018-09-10T11:34:27.554Z,98764.00
2018-09-10T11:36:57.636Z,98761.00
2018-09-10T11:39:28.924Z,98757.00
2018-09-10T11:41:59.076Z,98757.00
2018-09-10T11:44:29.233Z,98747.00
2018-09-10T11:46:59.449Z,98743.00
2018-09-10T11:49:29.638Z,98743.00
2018-09-10T11:51:59.767Z,98742.00
2018-09-10T11:54:29.865Z,98743.00
2018-09-10T11:57:00.051Z,98733.00
2018-09-10T11:59:33.881Z,98742.00
2018-09-10T12:02:04.068Z,98741.00
2018-09-10T12:04:34.259Z,98743.00
2018-09-10T12:07:04.699Z,98741.00
2018-09-10T12:09:37.815Z,98733.00
2018-09-10T12:12:07.961Z,98728.00
2018-09-10T12:14:38.134Z,98728.00
2018-09-10T12:17:08.584Z,98726.00
2018-09-10T12:19:38.787Z,98727.00
2018-09-10T12:22:08.963Z,98719.00
2018-09-10T12:24:39.021Z,98721.00
2018-09-10T12:27:09.112Z,98720.00
2018-09-10T12:29:41.607Z,98720.00
2018-09-10T12:32:11.868Z,98722.00
2018-09-10T12:34:42.050Z,98721.00
2018-09-10T12:37:12.134Z,98722.00
2018-09-10T12:39:42.365Z,98717.00
2018-09-10T12:42:12.465Z,98717.00
2018-09-10T12:44:42.572Z,98718.00
2018-09-10T12:47:12.671Z,98718.00
2018-09-10T12:49:43.350Z,98719.00
2018-09-10T12:52:13.753Z,98714.00
2018-09-10T12:54:43.846Z,98705.00
2018-09-10T12:57:14.305Z,98700.00
2018-09-10T12:59:44.436Z,98693.00
2018-09-10T13:02:14.590Z,98690.00
2018-09-10T13:04:44.702Z,98689.00
2018-09-10T13:07:15.401Z,98685.00
2018-09-10T13:09:46.128Z,98679.00
2018-09-10T13:12:16.273Z,98672.00
2018-09-10T13:14:46.456Z,98672.00
2018-09-10T13:17:16.552Z,98667.00
2018-09-10T13:19:46.723Z,98666.00
2018-09-10T13:22:16.780Z,98663.00
2018-09-10T13:24:47.084Z,98655.00
2018-09-10T13:27:17.718Z,98648.00
2018-09-10T13:29:47.870Z,98649.00
2018-09-10T13:32:17.864Z,98644.00
2018-09-10T13:34:48.157Z,98637.00
2018-09-10T13:37:18.202Z,98640.00
2018-09-10T13:39:48.205Z,98636.00
2018-09-10T13:42:18.260Z,98640.00
2018-09-10T13:44:48.954Z,98642.00
2018-09-10T13:47:19.097Z,98646.00
2018-09-10T13:49:49.293Z,98649.00
2018-09-10T13:52:19.416Z,98655.00
2018-09-10T13:54:49.662Z,98653.00
2018-09-10T13:57:19.783Z,98652.00
2018-09-10T13:59:50.041Z,98649.00
2018-09-10T14:02:20.517Z,98658.00
2018-09-10T14:04:50.756Z,98654.00
2018-09-10T14:07:20.988Z,98664.00
2018-09-10T14:09:51.690Z,98654.00
2018-09-10T14:12:21.931Z,98659.00
2018-09-10T14:14:52.068Z,98648.00
2018-09-10T14:17:22.168Z,98650.00
2018-09-10T14:19:52.342Z,98640.00
2018-09-10T14:22:22.435Z,98636.00
2018-09-10T14:24:53.100Z,98635.00
2018-09-10T14:27:23.174Z,98632.00
2018-09-10T14:29:53.915Z,98625.00
2018-09-10T14:32:23.988Z,98629.00
2018-09-10T14:34:54.299Z,98621.00
2018-09-10T14:37:24.478Z,98618.00
2018-09-10T14:39:54.548Z,98616.00
2018-09-10T14:42:24.658Z,98605.00
2018-09-10T14:44:54.792Z,98601.00
2018-09-10T14:47:24.962Z,98599.00
2018-09-10T14:49:55.023Z,98607.00
2018-09-10T14:52:25.136Z,98609.00
2018-09-10T14:54:55.314Z,98613.00
2018-09-10T14:57:25.892Z,98612.00
2018-09-10T14:59:55.988Z,98605.00
2018-09-10T15:02:26.056Z,98608.00
2018-09-10T15:04:56.156Z,98615.00
2018-09-10T15:07:26.282Z,98618.00
2018-09-10T15:09:56.361Z,98620.00
2018-09-10T15:12:26.423Z,98632.00
2018-09-10T15:14:56.476Z,98630.00
2018-09-10T15:17:26.540Z,98637.00
2018-09-10T15:19:57.703Z,98633.00
2018-09-10T15:22:27.904Z,98625.00
2018-09-10T15:24:58.054Z,98625.00
2018-09-10T15:27:28.255Z,98621.00
2018-09-10T15:29:58.356Z,98618.00
2018-09-10T15:32:29.222Z,98627.00
2018-09-10T15:34:59.518Z,98627.00
2018-09-10T15:37:29.570Z,98631.00
2018-09-10T15:39:59.760Z,98629.00
2018-09-10T15:42:29.803Z,98628.00
2018-09-10T15:45:00.144Z,98621.00
2018-09-10T15:47:30.196Z,98620.00
2018-09-10T15:50:07.054Z,98623.00
2018-09-10T15:52:37.885Z,98631.00
2018-09-10T15:55:08.173Z,98629.00
2018-09-10T15:57:38.271Z,98629.00
2018-09-10T16:00:08.592Z,98633.00
2018-09-10T16:02:38.948Z,98635.00
2018-09-10T16:05:09.085Z,98634.00
2018-09-10T16:07:40.069Z,98639.00
2018-09-10T16:10:10.282Z,98640.00
2018-09-10T16:12:40.352Z,98648.00
2018-09-10T16:15:10.513Z,98641.00
2018-09-10T16:17:40.774Z,98636.00
2018-09-10T16:20:10.783Z,98636.00
2018-09-10T16:22:40.839Z,98634.00
2018-09-10T16:25:10.927Z,98634.00
2018-09-10T16:27:41.176Z,98635.00
2018-09-10T16:30:11.398Z,98636.00
2018-09-10T16:32:41.736Z,98644.00
2018-09-10T16:35:11.808Z,98641.00
2018-09-10T16:37:41.927Z,98642.00
2018-09-10T16:40:12.603Z,98651.00
2018-09-10T16:42:42.652Z,98648.00
2018-09-10T16:45:12.769Z,98648.00
2018-09-10T16:47:42.913Z,98649.00
2018-09-10T16:50:13.392Z,98651.00
2018-09-10T16:52:43.551Z,98660.00
2018-09-10T16:55:13.807Z,98658.00
2018-09-10T16:57:43.884Z,98660.00
2018-09-10T17:00:14.116Z,98656.00
2018-09-10T17:02:44.680Z,98663.00
2018-09-10T17:05:14.909Z,98664.00
2018-09-10T17:07:44.955Z,98663.00
2018-09-10T17:10:15.267Z,98663.00
2018-09-10T17:12:45.403Z,98658.00
2018-09-10T17:15:15.423Z,98657.00
2018-09-10T17:17:45.551Z,98649.00
2018-09-10T17:20:15.685Z,98652.00
2018-09-10T17:22:45.805Z,98649.00
2018-09-10T17:25:15.975Z,98646.00
2018-09-10T17:27:46.818Z,98648.00
2018-09-10T17:30:16.947Z,98642.00
2018-09-10T17:32:47.098Z,98644.00
2018-09-10T17:35:17.223Z,98641.00
2018-09-10T17:37:48.371Z,98642.00
2018-09-10T17:40:18.545Z,98644.00
2018-09-10T17:42:49.220Z,98650.00
2018-09-10T17:45:19.388Z,98650.00
2018-09-10T17:47:50.517Z,98652.00
2018-09-10T17:50:20.613Z,98655.00
2018-09-10T17:52:50.802Z,98650.00
2018-09-10T17:55:21.058Z,98652.00
2018-09-10T17:57:51.274Z,98650.00
2018-09-10T18:00:21.510Z,98645.00
2018-09-10T18:02:51.628Z,98646.00
2018-09-10T18:05:22.011Z,98649.00
2018-09-10T18:07:52.141Z,98655.00
2018-09-10T18:10:22.318Z,98655.00
2018-09-10T18:12:52.331Z,98656.00
2018-09-10T18:15:22.436Z,98660.00
2018-09-10T18:17:52.485Z,98663.00
2018-09-10T18:20:22.697Z,98665.00
2018-09-10T18:22:52.752Z,98673.00
2018-09-10T18:25:22.874Z,98666.00
2018-09-10T18:27:54.069Z,98665.00
2018-09-10T18:30:24.441Z,98661.00
2018-09-10T18:32:54.533Z,98664.00
2018-09-10T18:35:24.801Z,98670.00
2018-09-10T18:37:54.923Z,98673.00
2018-09-10T18:40:26.257Z,98676.00
2018-09-10T18:42:56.433Z,98676.00
2018-09-10T18:45:27.492Z,98676.00
2018-09-10T18:47:57.698Z,98687.00
2018-09-10T18:50:27.847Z,98689.00
2018-09-10T18:52:57.934Z,98697.00
2018-09-10T18:55:28.045Z,98694.00
2018-09-10T18:57:58.113Z,98697.00
2018-09-10T19:00:28.791Z,98697.00
2018-09-10T19:02:58.900Z,98688.00
2018-09-10T19:05:29.031Z,98697.00
2018-09-10T19:07:59.130Z,98697.00
2018-09-10T19:10:29.310Z,98701.00
2018-09-10T19:12:59.374Z,98708.00
2018-09-10T19:15:30.044Z,98719.00
2018-09-10T19:18:00.319Z,98726.00
2018-09-10T19:20:30.471Z,98725.00
2018-09-10T19:23:00.562Z,98730.00
2018-09-10T19:25:30.674Z,98730.00
2018-09-10T19:28:01.748Z,98730.00
2018-09-10T19:30:32.485Z,98740.00
2018-09-10T19:33:07.562Z,98745.00
2018-09-10T19:35:38.610Z,98743.00
2018-09-10T19:38:08.787Z,98746.00
2018-09-10T19:40:39.954Z,98750.00
2018-09-10T19:43:11.200Z,98759.00
2018-09-10T19:45:41.318Z,98763.00
2018-09-10T19:48:12.050Z,98757.00
2018-09-10T19:50:42.943Z,98754.00
2018-09-10T19:53:13.158Z,98750.00
2018-09-10T19:55:43.678Z,98751.00
2018-09-10T19:58:13.758Z,98756.00
2018-09-10T20:00:44.456Z,98763.00
2018-09-10T20:03:14.538Z,98772.00
2018-09-10T20:05:44.708Z,98770.00
2018-09-10T20:08:14.848Z,98764.00
2018-09-10T20:10:44.987Z,98765.00
2018-09-10T20:13:15.063Z,98765.00
2018-09-10T20:15:46.106Z,98759.00
2018-09-10T20:18:16.646Z,98761.00
2018-09-10T20:20:47.664Z,98762.00
2018-09-10T20:23:17.957Z,98763.00
2018-09-10T20:25:48.084Z,98760.00
2018-09-10T20:28:18.190Z,98766.00
2018-09-10T20:30:48.398Z,98766.00
2018-09-10T20:33:18.611Z,98772.00
2018-09-10T20:35:48.735Z,98775.00
2018-09-10T20:38:19.009Z,98775.00
2018-09-10T20:40:49.218Z,98780.00
2018-09-10T20:43:19.345Z,98778.00
2018-09-10T20:45:49.617Z,98771.00
2018-09-10T20:48:19.774Z,98770.00
2018-09-10T20:50:51.197Z,98768.00
2018-09-10T20:53:21.223Z,98768.00
2018-09-10T20:55:51.368Z,98766.00
2018-09-10T20:58:21.491Z,98764.00
2018-09-10T21:00:51.816Z,98766.00
2018-09-10T21:03:22.151Z,98768.00
2018-09-10T21:05:52.257Z,98765.00
2018-09-10T21:08:22.288Z,98758.00
2018-09-10T21:10:52.377Z,98762.00
2018-09-10T21:13:22.465Z,98760.00
2018-09-10T21:15:52.583Z,98758.00
2018-09-10T21:18:22.625Z,98759.00
2018-09-10T21:20:52.705Z,98755.00
2018-09-10T21:23:22.844Z,98757.00
2018-09-10T21:25:52.897Z,98755.00
2018-09-10T21:28:23.069Z,98754.00
2018-09-10T21:30:53.131Z,98755.00
2018-09-10T21:33:23.181Z,98754.00
2018-09-10T21:35:53.255Z,98757.00
2018-09-10T21:38:23.851Z,98756.00
2018-09-10T21:40:53.929Z,98756.00
2018-09-10T21:43:24.000Z,98755.00
2018-09-10T21:45:54.101Z,98756.00
2018-09-10T21:48:24.213Z,98758.00
2018-09-10T21:50:54.297Z,98757.00
2018-09-10T21:53:24.360Z,98758.00
2018-09-10T21:55:54.496Z,98759.00
2018-09-10T21:58:24.701Z,98752.00
2018-09-10T22:00:56.439Z,98755.00
2018-09-10T22:03:26.725Z,98754.00
2018-09-10T22:05:56.990Z,98756.00
2018-09-10T22:08:27.185Z,98764.00
2018-09-10T22:10:57.255Z,98760.00
2018-09-10T22:13:27.376Z,98760.00
2018-09-10T22:15:57.852Z,98763.00
2018-09-10T22:18:27.941Z,98762.00
2018-09-10T22:20:58.148Z,98767.00
2018-09-10T22:23:28.372Z,98764.00
2018-09-10T22:25:58.584Z,98769.00
2018-09-10T22:28:28.677Z,98774.00
2018-09-10T22:30:59.273Z,98768.00
2018-09-10T22:33:29.427Z,98767.00
2018-09-10T22:36:00.523Z,98767.00
2018-09-10T22:38:30.689Z,98771.00
2018-09-10T22:41:00.893Z,98777.00
2018-09-10T22:43:31.017Z,98783.00
2018-09-10T22:46:01.237Z,98780.00
2018-09-10T22:48:31.932Z,98783.00
2018-09-10T22:51:02.121Z,98787.00
2018-09-10T22:53:32.181Z,98786.00
2018-09-10T22:56:02.356Z,98791.00
2018-09-10T22:58:32.464Z,98795.00
2018-09-10T23:01:03.559Z,98795.00
2018-09-10T23:03:33.704Z,98803.00
2018-09-10T23:06:03.829Z,98806.00
2018-09-10T23:08:34.080Z,98804.00
2018-09-10T23:11:04.187Z,98812.00
2018-09-10T23:13:34.287Z,98818.00
2018-09-10T23:16:04.425Z,98811.00
2018-09-10T23:18:35.157Z,98813.00
2018-09-10T23:21:05.572Z,98811.00
2018-09-10T23:23:36.254Z,98813.00
2018-09-10T23:26:06.629Z,98806.00
2018-09-10T23:28:36.806Z,98804.00
2018-09-10T23:31:07.665Z,98805.00
2018-09-10T23:33:37.842Z,98804.00
2018-09-10T23:36:07.986Z,98803.00
2018-09-10T23:38:38.114Z,98805.00
2018-09-10T23:41:08.748Z,98804.00
2018-09-10T23:43:38.817Z,98800.00
2018-09-10T23:46:08.955Z,98804.00
2018-09-10T23:48:38.980Z,98808.00
2018-09-10T23:51:09.051Z,98807.00
2018-09-10T23:53:39.371Z,98810.00
2018-09-10T23:56:09.445Z,98811.00
2018-09-10T23:58:39.521Z,98805.00
